sensor_id;sensor_type;location;lat;lon;timestamp;temperature;humidity
66728;DHT22;53641;44.274;19.890;2024-02-21T00:01:14;9.80;99.90
66728;DHT22;53641;44.274;19.890;2024-02-21T00:03:40;9.80;99.90
66728;DHT22;53641;44.274;19.890;2024-02-21T00:06:05;9.70;99.90
66728;DHT22;53641;44.274;19.890;2024-02-21T00:08:31;9.70;99.90
66728;DHT22;53641;44.274;19.890;2024-02-21T00:10:57;9.70;99.90
66728;DHT22;53641;44.274;19.890;2024-02-21T00:13:23;9.80;99.90
66728;DHT22;53641;44.274;19.890;2024-02-21T00:15:48;9.80;99.90
66728;DHT22;53641;44.274;19.890;2024-02-21T00:18:14;9.80;99.90
66728;DHT22;53641;44.274;19.890;2024-02-21T00:20:40;9.70;99.90
66728;DHT22;53641;44.274;19.890;2024-02-21T00:23:06;9.70;99.90
66728;DHT22;53641;44.274;19.890;2024-02-21T00:25:31;9.70;99.90
66728;DHT22;53641;44.274;19.890;2024-02-21T00:27:57;9.80;99.90
66728;DHT22;53641;44.274;19.890;2024-02-21T00:30:23;9.80;99.90
66728;DHT22;53641;44.274;19.890;2024-02-21T00:32:48;9.90;99.90
66728;DHT22;53641;44.274;19.890;2024-02-21T00:35:14;9.80;99.90
66728;DHT22;53641;44.274;19.890;2024-02-21T00:37:40;9.80;99.90
66728;DHT22;53641;44.274;19.890;2024-02-21T00:40:06;9.90;99.90
66728;DHT22;53641;44.274;19.890;2024-02-21T00:42:32;9.80;99.90
66728;DHT22;53641;44.274;19.890;2024-02-21T00:44:58;9.80;99.90
66728;DHT22;53641;44.274;19.890;2024-02-21T00:47:24;9.80;99.90
66728;DHT22;53641;44.274;19.890;2024-02-21T00:49:49;9.70;99.90
66728;DHT22;53641;44.274;19.890;2024-02-21T00:52:15;9.70;99.90
66728;DHT22;53641;44.274;19.890;2024-02-21T00:54:41;9.80;99.90
66728;DHT22;53641;44.274;19.890;2024-02-21T00:57:07;9.70;99.90
66728;DHT22;53641;44.274;19.890;2024-02-21T00:59:32;9.60;99.90
66728;DHT22;53641;44.274;19.890;2024-02-21T01:01:58;9.60;99.90
66728;DHT22;53641;44.274;19.890;2024-02-21T01:04:24;9.70;99.90
66728;DHT22;53641;44.274;19.890;2024-02-21T01:06:50;9.70;99.90
66728;DHT22;53641;44.274;19.890;2024-02-21T01:09:16;9.80;99.90
66728;DHT22;53641;44.274;19.890;2024-02-21T01:11:42;9.80;99.90
66728;DHT22;53641;44.274;19.890;2024-02-21T01:14:07;9.60;99.90
66728;DHT22;53641;44.274;19.890;2024-02-21T01:16:33;9.70;99.90
66728;DHT22;53641;44.274;19.890;2024-02-21T01:18:59;9.60;99.90
66728;DHT22;53641;44.274;19.890;2024-02-21T01:21:25;9.70;99.90
66728;DHT22;53641;44.274;19.890;2024-02-21T01:23:50;9.80;99.90
66728;DHT22;53641;44.274;19.890;2024-02-21T01:26:16;9.80;99.90
66728;DHT22;53641;44.274;19.890;2024-02-21T01:28:42;9.70;99.90
66728;DHT22;53641;44.274;19.890;2024-02-21T01:31:08;9.70;99.90
66728;DHT22;53641;44.274;19.890;2024-02-21T01:33:33;9.80;99.90
66728;DHT22;53641;44.274;19.890;2024-02-21T01:36:04;9.80;99.90
66728;DHT22;53641;44.274;19.890;2024-02-21T01:38:32;9.80;99.90
66728;DHT22;53641;44.274;19.890;2024-02-21T01:40:58;9.70;99.90
66728;DHT22;53641;44.274;19.890;2024-02-21T01:43:24;9.80;99.90
66728;DHT22;53641;44.274;19.890;2024-02-21T01:45:51;9.70;99.90
66728;DHT22;53641;44.274;19.890;2024-02-21T01:48:18;9.70;99.90
66728;DHT22;53641;44.274;19.890;2024-02-21T01:50:51;9.70;99.90
66728;DHT22;53641;44.274;19.890;2024-02-21T01:53:21;9.60;99.90
66728;DHT22;53641;44.274;19.890;2024-02-21T01:55:48;9.70;99.90
66728;DHT22;53641;44.274;19.890;2024-02-21T01:58:15;9.60;99.90
66728;DHT22;53641;44.274;19.890;2024-02-21T02:00:42;9.70;99.90
66728;DHT22;53641;44.274;19.890;2024-02-21T02:03:12;9.60;99.90
66728;DHT22;53641;44.274;19.890;2024-02-21T02:05:49;9.60;99.90
66728;DHT22;53641;44.274;19.890;2024-02-21T02:08:16;9.60;99.90
66728;DHT22;53641;44.274;19.890;2024-02-21T02:10:42;9.70;99.90
66728;DHT22;53641;44.274;19.890;2024-02-21T02:13:08;9.60;99.90
66728;DHT22;53641;44.274;19.890;2024-02-21T02:15:42;9.60;99.90
66728;DHT22;53641;44.274;19.890;2024-02-21T02:18:09;9.60;99.90
66728;DHT22;53641;44.274;19.890;2024-02-21T02:20:36;9.60;99.90
66728;DHT22;53641;44.274;19.890;2024-02-21T02:23:07;9.60;99.90
66728;DHT22;53641;44.274;19.890;2024-02-21T02:25:34;9.70;99.90
66728;DHT22;53641;44.274;19.890;2024-02-21T02:28:00;9.70;99.90
66728;DHT22;53641;44.274;19.890;2024-02-21T02:30:26;9.70;99.90
66728;DHT22;53641;44.274;19.890;2024-02-21T02:32:52;9.70;99.90
66728;DHT22;53641;44.274;19.890;2024-02-21T02:35:17;9.70;99.90
66728;DHT22;53641;44.274;19.890;2024-02-21T02:37:50;9.70;99.90
66728;DHT22;53641;44.274;19.890;2024-02-21T02:40:16;9.70;99.90
66728;DHT22;53641;44.274;19.890;2024-02-21T02:42:41;9.70;99.90
66728;DHT22;53641;44.274;19.890;2024-02-21T02:45:08;9.70;99.90
66728;DHT22;53641;44.274;19.890;2024-02-21T02:47:33;9.70;99.90
66728;DHT22;53641;44.274;19.890;2024-02-21T02:50:00;9.70;99.90
66728;DHT22;53641;44.274;19.890;2024-02-21T02:52:26;9.70;99.90
66728;DHT22;53641;44.274;19.890;2024-02-21T02:54:51;9.80;99.90
66728;DHT22;53641;44.274;19.890;2024-02-21T02:57:18;9.70;99.90
66728;DHT22;53641;44.274;19.890;2024-02-21T02:59:51;9.80;99.90
66728;DHT22;53641;44.274;19.890;2024-02-21T03:02:17;9.70;99.90
66728;DHT22;53641;44.274;19.890;2024-02-21T03:04:43;9.70;99.90
66728;DHT22;53641;44.274;19.890;2024-02-21T03:07:09;9.70;99.90
66728;DHT22;53641;44.274;19.890;2024-02-21T03:09:39;9.70;99.90
66728;DHT22;53641;44.274;19.890;2024-02-21T03:12:05;9.70;99.90
66728;DHT22;53641;44.274;19.890;2024-02-21T03:14:32;9.70;99.90
66728;DHT22;53641;44.274;19.890;2024-02-21T03:16:59;9.70;99.90
66728;DHT22;53641;44.274;19.890;2024-02-21T03:19:25;9.70;99.90
66728;DHT22;53641;44.274;19.890;2024-02-21T03:21:51;9.70;99.90
66728;DHT22;53641;44.274;19.890;2024-02-21T03:24:18;9.70;99.90
66728;DHT22;53641;44.274;19.890;2024-02-21T03:26:44;9.70;99.90
66728;DHT22;53641;44.274;19.890;2024-02-21T03:29:11;9.70;99.90
66728;DHT22;53641;44.274;19.890;2024-02-21T03:31:38;9.80;99.90
66728;DHT22;53641;44.274;19.890;2024-02-21T03:34:03;9.80;99.90
66728;DHT22;53641;44.274;19.890;2024-02-21T03:36:29;9.80;99.90
66728;DHT22;53641;44.274;19.890;2024-02-21T03:38:55;9.80;99.90
66728;DHT22;53641;44.274;19.890;2024-02-21T03:41:21;9.70;99.90
66728;DHT22;53641;44.274;19.890;2024-02-21T03:43:47;9.70;99.90
66728;DHT22;53641;44.274;19.890;2024-02-21T03:46:12;9.70;99.90
66728;DHT22;53641;44.274;19.890;2024-02-21T03:48:39;9.80;99.90
66728;DHT22;53641;44.274;19.890;2024-02-21T03:51:05;9.60;99.90
66728;DHT22;53641;44.274;19.890;2024-02-21T03:53:31;9.80;99.90
66728;DHT22;53641;44.274;19.890;2024-02-21T03:55:56;9.70;99.90
66728;DHT22;53641;44.274;19.890;2024-02-21T03:58:25;9.70;99.90
66728;DHT22;53641;44.274;19.890;2024-02-21T04:00:51;9.70;99.90
66728;DHT22;53641;44.274;19.890;2024-02-21T04:03:17;9.60;99.90
66728;DHT22;53641;44.274;19.890;2024-02-21T04:05:43;9.70;99.90
66728;DHT22;53641;44.274;19.890;2024-02-21T04:08:09;9.80;99.90
66728;DHT22;53641;44.274;19.890;2024-02-21T04:10:34;9.80;99.90
66728;DHT22;53641;44.274;19.890;2024-02-21T04:13:00;9.70;99.90
66728;DHT22;53641;44.274;19.890;2024-02-21T04:15:26;9.80;99.90
66728;DHT22;53641;44.274;19.890;2024-02-21T04:17:52;9.80;99.90
66728;DHT22;53641;44.274;19.890;2024-02-21T04:20:18;9.80;99.90
66728;DHT22;53641;44.274;19.890;2024-02-21T04:22:44;9.80;99.90
66728;DHT22;53641;44.274;19.890;2024-02-21T04:25:10;9.80;99.90
66728;DHT22;53641;44.274;19.890;2024-02-21T04:27:37;9.70;99.90
66728;DHT22;53641;44.274;19.890;2024-02-21T04:30:03;9.70;99.90
66728;DHT22;53641;44.274;19.890;2024-02-21T04:32:29;9.70;99.90
66728;DHT22;53641;44.274;19.890;2024-02-21T04:34:55;9.70;99.90
66728;DHT22;53641;44.274;19.890;2024-02-21T04:37:21;9.80;99.90
66728;DHT22;53641;44.274;19.890;2024-02-21T04:39:48;9.80;99.90
66728;DHT22;53641;44.274;19.890;2024-02-21T04:42:14;9.80;99.90
66728;DHT22;53641;44.274;19.890;2024-02-21T04:44:40;9.80;99.90
66728;DHT22;53641;44.274;19.890;2024-02-21T04:47:06;9.70;99.90
66728;DHT22;53641;44.274;19.890;2024-02-21T04:49:32;9.70;99.90
66728;DHT22;53641;44.274;19.890;2024-02-21T04:51:58;9.70;99.90
66728;DHT22;53641;44.274;19.890;2024-02-21T04:54:23;9.70;99.90
66728;DHT22;53641;44.274;19.890;2024-02-21T04:56:50;9.70;99.90
66728;DHT22;53641;44.274;19.890;2024-02-21T04:59:16;9.60;99.90
66728;DHT22;53641;44.274;19.890;2024-02-21T05:01:41;9.60;99.90
66728;DHT22;53641;44.274;19.890;2024-02-21T05:04:07;9.70;99.90
66728;DHT22;53641;44.274;19.890;2024-02-21T05:06:37;9.60;99.90
66728;DHT22;53641;44.274;19.890;2024-02-21T05:09:03;9.60;99.90
66728;DHT22;53641;44.274;19.890;2024-02-21T05:11:28;9.60;99.90
66728;DHT22;53641;44.274;19.890;2024-02-21T05:13:54;9.50;99.90
66728;DHT22;53641;44.274;19.890;2024-02-21T05:16:20;9.60;99.90
66728;DHT22;53641;44.274;19.890;2024-02-21T05:18:46;9.50;99.90
66728;DHT22;53641;44.274;19.890;2024-02-21T05:21:12;9.30;99.90
66728;DHT22;53641;44.274;19.890;2024-02-21T05:23:38;9.20;99.90
66728;DHT22;53641;44.274;19.890;2024-02-21T05:26:05;9.20;99.90
66728;DHT22;53641;44.274;19.890;2024-02-21T05:28:31;9.20;99.90
66728;DHT22;53641;44.274;19.890;2024-02-21T05:30:56;9.30;99.90
66728;DHT22;53641;44.274;19.890;2024-02-21T05:33:22;9.40;99.90
66728;DHT22;53641;44.274;19.890;2024-02-21T05:35:48;9.40;99.90
66728;DHT22;53641;44.274;19.890;2024-02-21T05:38:14;9.40;99.90
66728;DHT22;53641;44.274;19.890;2024-02-21T05:40:40;9.50;99.90
66728;DHT22;53641;44.274;19.890;2024-02-21T05:43:07;9.40;99.90
66728;DHT22;53641;44.274;19.890;2024-02-21T05:45:33;9.40;99.90
66728;DHT22;53641;44.274;19.890;2024-02-21T05:47:59;9.50;99.90
66728;DHT22;53641;44.274;19.890;2024-02-21T05:50:25;9.60;99.90
66728;DHT22;53641;44.274;19.890;2024-02-21T05:52:52;9.60;99.90
66728;DHT22;53641;44.274;19.890;2024-02-21T05:55:18;9.70;99.90
66728;DHT22;53641;44.274;19.890;2024-02-21T05:57:44;9.70;99.90
66728;DHT22;53641;44.274;19.890;2024-02-21T06:00:10;9.60;99.90
66728;DHT22;53641;44.274;19.890;2024-02-21T06:02:36;9.50;99.90
66728;DHT22;53641;44.274;19.890;2024-02-21T06:05:02;9.70;99.90
66728;DHT22;53641;44.274;19.890;2024-02-21T06:07:27;9.60;99.90
66728;DHT22;53641;44.274;19.890;2024-02-21T06:09:53;9.60;99.90
66728;DHT22;53641;44.274;19.890;2024-02-21T06:12:19;9.60;99.90
66728;DHT22;53641;44.274;19.890;2024-02-21T06:14:45;9.70;99.90
66728;DHT22;53641;44.274;19.890;2024-02-21T06:17:11;9.80;99.90
66728;DHT22;53641;44.274;19.890;2024-02-21T06:19:40;10.00;99.90
66728;DHT22;53641;44.274;19.890;2024-02-21T06:22:07;10.10;99.90
66728;DHT22;53641;44.274;19.890;2024-02-21T06:24:33;10.10;99.90
66728;DHT22;53641;44.274;19.890;2024-02-21T06:26:59;10.20;99.90
66728;DHT22;53641;44.274;19.890;2024-02-21T06:29:25;10.20;99.90
66728;DHT22;53641;44.274;19.890;2024-02-21T06:31:51;10.30;99.90
66728;DHT22;53641;44.274;19.890;2024-02-21T06:34:16;10.30;99.90
66728;DHT22;53641;44.274;19.890;2024-02-21T06:36:42;10.30;99.90
66728;DHT22;53641;44.274;19.890;2024-02-21T06:39:08;10.10;99.90
66728;DHT22;53641;44.274;19.890;2024-02-21T06:41:34;10.30;99.90
66728;DHT22;53641;44.274;19.890;2024-02-21T06:44:00;10.30;99.90
66728;DHT22;53641;44.274;19.890;2024-02-21T06:46:27;10.20;99.90
66728;DHT22;53641;44.274;19.890;2024-02-21T06:55:08;10.20;99.90
66728;DHT22;53641;44.274;19.890;2024-02-21T06:57:37;10.20;99.90
66728;DHT22;53641;44.274;19.890;2024-02-21T07:00:03;10.20;99.90
66728;DHT22;53641;44.274;19.890;2024-02-21T07:02:29;10.20;99.90
66728;DHT22;53641;44.274;19.890;2024-02-21T07:04:54;10.40;99.90
66728;DHT22;53641;44.274;19.890;2024-02-21T07:07:21;10.50;99.90
66728;DHT22;53641;44.274;19.890;2024-02-21T07:09:49;10.70;99.90
66728;DHT22;53641;44.274;19.890;2024-02-21T07:15:25;10.80;99.90
66728;DHT22;53641;44.274;19.890;2024-02-21T07:18:11;10.80;99.90
66728;DHT22;53641;44.274;19.890;2024-02-21T07:20:43;10.90;99.90
66728;DHT22;53641;44.274;19.890;2024-02-21T07:23:08;11.00;99.90
66728;DHT22;53641;44.274;19.890;2024-02-21T07:25:34;11.00;99.90
66728;DHT22;53641;44.274;19.890;2024-02-21T07:28:00;10.90;99.90
66728;DHT22;53641;44.274;19.890;2024-02-21T07:30:46;10.90;99.90
66728;DHT22;53641;44.274;19.890;2024-02-21T07:33:14;10.90;99.90
66728;DHT22;53641;44.274;19.890;2024-02-21T07:35:40;10.90;99.90
66728;DHT22;53641;44.274;19.890;2024-02-21T07:38:07;10.80;99.90
66728;DHT22;53641;44.274;19.890;2024-02-21T07:40:37;10.70;99.90
66728;DHT22;53641;44.274;19.890;2024-02-21T07:43:03;10.70;99.90
66728;DHT22;53641;44.274;19.890;2024-02-21T07:45:29;10.70;99.90
66728;DHT22;53641;44.274;19.890;2024-02-21T07:47:58;10.70;99.90
66728;DHT22;53641;44.274;19.890;2024-02-21T07:50:43;10.80;99.90
66728;DHT22;53641;44.274;19.890;2024-02-21T07:53:32;11.00;99.90
66728;DHT22;53641;44.274;19.890;2024-02-21T07:55:58;11.10;99.90
66728;DHT22;53641;44.274;19.890;2024-02-21T07:58:25;11.10;99.90
66728;DHT22;53641;44.274;19.890;2024-02-21T08:00:52;11.20;99.90
66728;DHT22;53641;44.274;19.890;2024-02-21T08:03:20;11.20;99.90
66728;DHT22;53641;44.274;19.890;2024-02-21T08:05:46;11.20;99.80
66728;DHT22;53641;44.274;19.890;2024-02-21T08:08:13;11.20;99.90
66728;DHT22;53641;44.274;19.890;2024-02-21T08:10:43;11.20;99.60
66728;DHT22;53641;44.274;19.890;2024-02-21T08:13:09;11.20;99.40
66728;DHT22;53641;44.274;19.890;2024-02-21T08:16:12;11.40;99.10
66728;DHT22;53641;44.274;19.890;2024-02-21T08:18:38;11.50;98.50
66728;DHT22;53641;44.274;19.890;2024-02-21T08:21:04;11.30;98.60
66728;DHT22;53641;44.274;19.890;2024-02-21T08:23:30;11.40;98.20
66728;DHT22;53641;44.274;19.890;2024-02-21T08:29:02;11.60;97.70
66728;DHT22;53641;44.274;19.890;2024-02-21T08:31:28;11.60;97.10
66728;DHT22;53641;44.274;19.890;2024-02-21T08:33:58;11.90;97.40
66728;DHT22;53641;44.274;19.890;2024-02-21T08:36:30;12.10;97.30
66728;DHT22;53641;44.274;19.890;2024-02-21T08:39:17;12.00;97.50
66728;DHT22;53641;44.274;19.890;2024-02-21T08:41:42;12.30;97.00
66728;DHT22;53641;44.274;19.890;2024-02-21T08:44:08;12.40;96.40
66728;DHT22;53641;44.274;19.890;2024-02-21T08:46:34;12.40;95.50
66728;DHT22;53641;44.274;19.890;2024-02-21T08:49:00;12.40;94.30
66728;DHT22;53641;44.274;19.890;2024-02-21T08:51:45;12.40;94.90
66728;DHT22;53641;44.274;19.890;2024-02-21T08:54:32;12.70;94.40
66728;DHT22;53641;44.274;19.890;2024-02-21T08:57:01;12.60;93.80
66728;DHT22;53641;44.274;19.890;2024-02-21T08:59:26;12.60;93.70
66728;DHT22;53641;44.274;19.890;2024-02-21T09:01:54;12.40;93.70
66728;DHT22;53641;44.274;19.890;2024-02-21T09:04:20;12.30;94.00
66728;DHT22;53641;44.274;19.890;2024-02-21T09:06:46;12.30;94.00
66728;DHT22;53641;44.274;19.890;2024-02-21T09:09:12;12.20;93.90
66728;DHT22;53641;44.274;19.890;2024-02-21T09:11:38;12.20;93.10
66728;DHT22;53641;44.274;19.890;2024-02-21T09:14:04;12.10;93.60
66728;DHT22;53641;44.274;19.890;2024-02-21T09:16:31;12.00;93.60
66728;DHT22;53641;44.274;19.890;2024-02-21T09:18:57;12.00;93.40
66728;DHT22;53641;44.274;19.890;2024-02-21T09:21:23;12.00;93.30
66728;DHT22;53641;44.274;19.890;2024-02-21T09:23:49;12.10;93.20
66728;DHT22;53641;44.274;19.890;2024-02-21T09:26:14;12.40;93.70
66728;DHT22;53641;44.274;19.890;2024-02-21T09:28:42;12.40;92.60
66728;DHT22;53641;44.274;19.890;2024-02-21T09:31:09;12.60;92.60
66728;DHT22;53641;44.274;19.890;2024-02-21T09:33:34;12.70;92.10
66728;DHT22;53641;44.274;19.890;2024-02-21T09:36:00;13.00;92.00
66728;DHT22;53641;44.274;19.890;2024-02-21T09:38:26;13.10;91.50
66728;DHT22;53641;44.274;19.890;2024-02-21T09:41:14;13.20;91.20
66728;DHT22;53641;44.274;19.890;2024-02-21T09:43:44;13.30;91.10
66728;DHT22;53641;44.274;19.890;2024-02-21T09:46:17;13.40;90.90
66728;DHT22;53641;44.274;19.890;2024-02-21T09:54:52;13.80;90.10
66728;DHT22;53641;44.274;19.890;2024-02-21T09:57:38;13.70;89.70
66728;DHT22;53641;44.274;19.890;2024-02-21T10:00:24;13.90;89.80
66728;DHT22;53641;44.274;19.890;2024-02-21T10:05:59;14.50;88.00
66728;DHT22;53641;44.274;19.890;2024-02-21T10:08:26;14.90;87.20
66728;DHT22;53641;44.274;19.890;2024-02-21T10:10:52;15.30;86.40
66728;DHT22;53641;44.274;19.890;2024-02-21T10:13:26;15.30;85.60
66728;DHT22;53641;44.274;19.890;2024-02-21T10:19:02;15.40;84.20
66728;DHT22;53641;44.274;19.890;2024-02-21T10:21:29;15.80;82.50
66728;DHT22;53641;44.274;19.890;2024-02-21T10:23:55;16.00;81.00
66728;DHT22;53641;44.274;19.890;2024-02-21T10:26:21;16.10;81.10
66728;DHT22;53641;44.274;19.890;2024-02-21T10:28:47;16.40;80.80
66728;DHT22;53641;44.274;19.890;2024-02-21T10:31:27;16.30;79.10
66728;DHT22;53641;44.274;19.890;2024-02-21T10:34:06;16.40;78.40
66728;DHT22;53641;44.274;19.890;2024-02-21T10:36:34;16.20;77.80
66728;DHT22;53641;44.274;19.890;2024-02-21T10:39:00;15.80;78.30
66728;DHT22;53641;44.274;19.890;2024-02-21T10:41:25;15.70;78.40
66728;DHT22;53641;44.274;19.890;2024-02-21T10:43:56;15.50;78.80
66728;DHT22;53641;44.274;19.890;2024-02-21T10:46:24;15.20;79.20
66728;DHT22;53641;44.274;19.890;2024-02-21T10:48:59;14.90;80.10
66728;DHT22;53641;44.274;19.890;2024-02-21T10:51:30;14.80;82.10
66728;DHT22;53641;44.274;19.890;2024-02-21T10:54:07;14.70;81.20
66728;DHT22;53641;44.274;19.890;2024-02-21T10:56:38;14.60;82.50
66728;DHT22;53641;44.274;19.890;2024-02-21T10:59:06;14.50;82.60
66728;DHT22;53641;44.274;19.890;2024-02-21T11:01:32;14.60;82.50
66728;DHT22;53641;44.274;19.890;2024-02-21T11:04:01;14.60;82.00
66728;DHT22;53641;44.274;19.890;2024-02-21T11:06:28;14.60;82.40
66728;DHT22;53641;44.274;19.890;2024-02-21T11:09:01;14.80;82.20
66728;DHT22;53641;44.274;19.890;2024-02-21T11:11:28;15.10;82.60
66728;DHT22;53641;44.274;19.890;2024-02-21T11:14:03;15.20;80.40
66728;DHT22;53641;44.274;19.890;2024-02-21T11:16:35;15.10;82.20
66728;DHT22;53641;44.274;19.890;2024-02-21T11:19:21;15.30;80.40
66728;DHT22;53641;44.274;19.890;2024-02-21T11:21:48;15.30;79.80
66728;DHT22;53641;44.274;19.890;2024-02-21T11:24:14;15.40;80.10
66728;DHT22;53641;44.274;19.890;2024-02-21T11:27:23;15.50;78.70
66728;DHT22;53641;44.274;19.890;2024-02-21T11:29:57;15.60;78.20
66728;DHT22;53641;44.274;19.890;2024-02-21T11:32:23;15.80;78.20
66728;DHT22;53641;44.274;19.890;2024-02-21T11:35:01;16.00;78.30
66728;DHT22;53641;44.274;19.890;2024-02-21T11:37:30;15.90;78.90
66728;DHT22;53641;44.274;19.890;2024-02-21T11:39:59;16.00;77.90
66728;DHT22;53641;44.274;19.890;2024-02-21T11:42:27;16.20;77.70
66728;DHT22;53641;44.274;19.890;2024-02-21T11:44:54;16.30;77.70
66728;DHT22;53641;44.274;19.890;2024-02-21T11:47:22;16.30;75.90
66728;DHT22;53641;44.274;19.890;2024-02-21T11:49:49;16.50;76.20
66728;DHT22;53641;44.274;19.890;2024-02-21T11:52:21;16.60;76.70
66728;DHT22;53641;44.274;19.890;2024-02-21T11:54:48;16.60;76.80
66728;DHT22;53641;44.274;19.890;2024-02-21T11:57:17;16.70;75.40
66728;DHT22;53641;44.274;19.890;2024-02-21T11:59:44;16.70;75.20
66728;DHT22;53641;44.274;19.890;2024-02-21T12:02:11;16.60;76.20
66728;DHT22;53641;44.274;19.890;2024-02-21T12:04:38;16.50;74.30
66728;DHT22;53641;44.274;19.890;2024-02-21T12:07:05;16.20;74.40
66728;DHT22;53641;44.274;19.890;2024-02-21T12:09:31;16.10;74.60
66728;DHT22;53641;44.274;19.890;2024-02-21T12:11:59;16.00;75.90
66728;DHT22;53641;44.274;19.890;2024-02-21T12:14:26;15.90;75.40
66728;DHT22;53641;44.274;19.890;2024-02-21T12:16:52;15.80;76.90
66728;DHT22;53641;44.274;19.890;2024-02-21T12:19:17;15.70;77.90
66728;DHT22;53641;44.274;19.890;2024-02-21T12:21:43;15.90;76.40
66728;DHT22;53641;44.274;19.890;2024-02-21T12:24:15;15.60;75.20
66728;DHT22;53641;44.274;19.890;2024-02-21T12:26:43;15.70;77.80
66728;DHT22;53641;44.274;19.890;2024-02-21T12:29:09;15.70;76.50
66728;DHT22;53641;44.274;19.890;2024-02-21T12:31:36;15.60;76.70
66728;DHT22;53641;44.274;19.890;2024-02-21T12:34:02;15.50;75.50
66728;DHT22;53641;44.274;19.890;2024-02-21T12:36:28;15.50;75.90
66728;DHT22;53641;44.274;19.890;2024-02-21T12:38:54;15.50;74.90
66728;DHT22;53641;44.274;19.890;2024-02-21T12:41:20;15.50;75.00
66728;DHT22;53641;44.274;19.890;2024-02-21T12:44:06;15.40;76.10
66728;DHT22;53641;44.274;19.890;2024-02-21T12:46:33;15.30;76.60
66728;DHT22;53641;44.274;19.890;2024-02-21T12:48:58;15.10;76.40
66728;DHT22;53641;44.274;19.890;2024-02-21T12:51:24;15.30;77.10
66728;DHT22;53641;44.274;19.890;2024-02-21T12:53:50;15.30;77.40
66728;DHT22;53641;44.274;19.890;2024-02-21T12:56:16;15.20;76.30
66728;DHT22;53641;44.274;19.890;2024-02-21T12:58:42;15.10;77.00
66728;DHT22;53641;44.274;19.890;2024-02-21T13:01:08;15.10;76.40
66728;DHT22;53641;44.274;19.890;2024-02-21T13:03:34;15.00;78.20
66728;DHT22;53641;44.274;19.890;2024-02-21T13:06:00;15.10;78.50
66728;DHT22;53641;44.274;19.890;2024-02-21T13:08:26;14.90;77.10
66728;DHT22;53641;44.274;19.890;2024-02-21T13:10:52;14.90;78.00
66728;DHT22;53641;44.274;19.890;2024-02-21T13:13:17;14.90;77.00
66728;DHT22;53641;44.274;19.890;2024-02-21T13:15:44;14.90;76.30
66728;DHT22;53641;44.274;19.890;2024-02-21T13:18:10;15.20;75.20
66728;DHT22;53641;44.274;19.890;2024-02-21T13:20:36;15.30;74.90
66728;DHT22;53641;44.274;19.890;2024-02-21T13:23:02;15.20;75.30
66728;DHT22;53641;44.274;19.890;2024-02-21T13:25:28;15.50;76.50
66728;DHT22;53641;44.274;19.890;2024-02-21T13:27:54;15.70;76.90
66728;DHT22;53641;44.274;19.890;2024-02-21T13:30:21;15.70;77.40
66728;DHT22;53641;44.274;19.890;2024-02-21T13:32:47;15.70;75.90
66728;DHT22;53641;44.274;19.890;2024-02-21T13:35:13;15.70;75.00
66728;DHT22;53641;44.274;19.890;2024-02-21T13:37:40;15.40;76.80
66728;DHT22;53641;44.274;19.890;2024-02-21T13:40:06;15.40;77.50
66728;DHT22;53641;44.274;19.890;2024-02-21T13:42:40;15.10;77.30
66728;DHT22;53641;44.274;19.890;2024-02-21T13:45:06;15.20;75.70
66728;DHT22;53641;44.274;19.890;2024-02-21T13:47:33;14.80;76.80
66728;DHT22;53641;44.274;19.890;2024-02-21T13:50:02;14.90;76.90
66728;DHT22;53641;44.274;19.890;2024-02-21T13:52:30;14.90;76.70
66728;DHT22;53641;44.274;19.890;2024-02-21T13:54:56;15.00;75.90
66728;DHT22;53641;44.274;19.890;2024-02-21T13:57:22;15.00;75.40
66728;DHT22;53641;44.274;19.890;2024-02-21T13:59:48;15.10;75.20
66728;DHT22;53641;44.274;19.890;2024-02-21T14:02:14;15.00;75.60
66728;DHT22;53641;44.274;19.890;2024-02-21T14:04:40;15.00;74.40
66728;DHT22;53641;44.274;19.890;2024-02-21T14:07:06;14.90;74.30
66728;DHT22;53641;44.274;19.890;2024-02-21T14:09:31;15.00;73.40
66728;DHT22;53641;44.274;19.890;2024-02-21T14:11:58;15.00;73.10
66728;DHT22;53641;44.274;19.890;2024-02-21T14:14:24;15.00;73.70
66728;DHT22;53641;44.274;19.890;2024-02-21T14:16:50;14.90;74.60
66728;DHT22;53641;44.274;19.890;2024-02-21T14:19:16;14.80;73.80
66728;DHT22;53641;44.274;19.890;2024-02-21T14:21:42;14.70;73.20
66728;DHT22;53641;44.274;19.890;2024-02-21T14:24:08;14.60;73.00
66728;DHT22;53641;44.274;19.890;2024-02-21T14:26:34;14.40;72.30
66728;DHT22;53641;44.274;19.890;2024-02-21T14:29:03;14.40;73.00
66728;DHT22;53641;44.274;19.890;2024-02-21T14:31:31;14.30;72.10
66728;DHT22;53641;44.274;19.890;2024-02-21T14:33:57;14.20;73.10
66728;DHT22;53641;44.274;19.890;2024-02-21T14:36:22;14.10;72.80
66728;DHT22;53641;44.274;19.890;2024-02-21T14:38:49;14.10;72.90
66728;DHT22;53641;44.274;19.890;2024-02-21T14:41:17;13.80;73.30
66728;DHT22;53641;44.274;19.890;2024-02-21T14:43:43;13.80;73.20
66728;DHT22;53641;44.274;19.890;2024-02-21T14:46:09;13.80;74.20
66728;DHT22;53641;44.274;19.890;2024-02-21T14:48:35;13.80;74.90
66728;DHT22;53641;44.274;19.890;2024-02-21T14:51:01;13.80;75.20
66728;DHT22;53641;44.274;19.890;2024-02-21T14:53:27;13.80;74.60
66728;DHT22;53641;44.274;19.890;2024-02-21T14:55:54;13.90;74.60
66728;DHT22;53641;44.274;19.890;2024-02-21T14:58:20;13.80;74.00
66728;DHT22;53641;44.274;19.890;2024-02-21T15:00:46;13.70;73.40
66728;DHT22;53641;44.274;19.890;2024-02-21T15:03:12;13.70;73.40
66728;DHT22;53641;44.274;19.890;2024-02-21T15:05:40;13.70;73.40
66728;DHT22;53641;44.274;19.890;2024-02-21T15:08:06;13.80;74.50
66728;DHT22;53641;44.274;19.890;2024-02-21T15:10:33;13.70;74.20
66728;DHT22;53641;44.274;19.890;2024-02-21T15:13:00;13.60;73.30
66728;DHT22;53641;44.274;19.890;2024-02-21T15:15:26;13.60;74.10
66728;DHT22;53641;44.274;19.890;2024-02-21T15:17:51;13.50;73.60
66728;DHT22;53641;44.274;19.890;2024-02-21T15:20:17;13.50;73.90
66728;DHT22;53641;44.274;19.890;2024-02-21T15:22:43;13.50;73.60
66728;DHT22;53641;44.274;19.890;2024-02-21T15:25:09;13.40;74.40
66728;DHT22;53641;44.274;19.890;2024-02-21T15:27:44;13.40;74.90
66728;DHT22;53641;44.274;19.890;2024-02-21T15:30:14;13.30;74.60
66728;DHT22;53641;44.274;19.890;2024-02-21T15:32:40;13.30;75.50
66728;DHT22;53641;44.274;19.890;2024-02-21T15:35:09;13.20;75.80
66728;DHT22;53641;44.274;19.890;2024-02-21T15:37:39;13.10;75.70
66728;DHT22;53641;44.274;19.890;2024-02-21T15:40:06;13.00;76.80
66728;DHT22;53641;44.274;19.890;2024-02-21T15:42:35;13.10;76.10
66728;DHT22;53641;44.274;19.890;2024-02-21T15:45:02;13.10;76.70
66728;DHT22;53641;44.274;19.890;2024-02-21T15:47:30;13.00;76.40
66728;DHT22;53641;44.274;19.890;2024-02-21T15:49:56;13.00;76.60